createdAt,value
2024-05-09T00:01:40.279Z,100728.38
2024-05-09T00:04:08.808Z,100731.44
2024-05-09T00:06:36.032Z,100726.44
2024-05-09T00:09:03.315Z,100727.84
2024-05-09T00:11:33.035Z,100731.88
2024-05-09T00:14:02.923Z,100733.28
2024-05-09T00:16:30.096Z,100735.47
2024-05-09T00:19:00.255Z,100727.00
2024-05-09T00:21:28.297Z,100720.34
2024-05-09T00:23:55.585Z,100725.88
2024-05-09T00:26:23.825Z,100721.69
2024-05-09T00:28:51.114Z,100730.13
2024-05-09T00:31:18.371Z,100717.91
2024-05-09T00:33:45.568Z,100723.44
2024-05-09T00:36:13.005Z,100724.66
2024-05-09T00:38:40.208Z,100727.53
2024-05-09T00:41:07.524Z,100726.00
2024-05-09T00:43:34.670Z,100728.88
2024-05-09T00:46:02.190Z,100729.06
2024-05-09T00:48:29.740Z,100726.59
2024-05-09T00:50:57.734Z,100728.59
2024-05-09T00:53:25.675Z,100723.59
2024-05-09T00:56:00.071Z,100726.63
2024-05-09T00:58:30.639Z,100726.00
2024-05-09T01:01:01.656Z,100731.53
2024-05-09T01:03:29.184Z,100715.66
2024-05-09T01:05:56.697Z,100719.50
2024-05-09T01:08:24.044Z,100726.72
2024-05-09T01:10:51.309Z,100722.56
2024-05-09T01:13:18.594Z,100722.75
2024-05-09T01:15:48.054Z,100726.41
2024-05-09T01:18:15.755Z,100717.72
2024-05-09T01:20:44.980Z,100721.59
2024-05-09T01:23:15.578Z,100717.41
2024-05-09T01:25:45.594Z,100714.09
2024-05-09T01:28:13.519Z,100714.47
2024-05-09T01:30:40.631Z,100711.28
2024-05-09T01:33:09.784Z,100715.16
2024-05-09T01:35:40.881Z,100718.19
2024-05-09T01:38:09.881Z,100712.38
2024-05-09T01:40:39.852Z,100706.53
2024-05-09T01:43:11.935Z,100710.56
2024-05-09T01:45:40.916Z,100706.59
2024-05-09T01:48:10.180Z,100707.81
2024-05-09T01:50:41.461Z,100705.28
2024-05-09T01:53:11.938Z,100703.81
2024-05-09T01:55:39.596Z,100705.66
2024-05-09T01:58:07.405Z,100696.81
2024-05-09T02:00:40.067Z,100700.50
2024-05-09T02:03:16.205Z,100695.28
2024-05-09T02:05:47.278Z,100703.16
2024-05-09T02:08:20.852Z,100702.34
2024-05-09T02:10:50.352Z,100697.00
2024-05-09T02:13:18.237Z,100689.94
2024-05-09T02:15:45.546Z,100694.47
2024-05-09T02:18:13.468Z,100693.63
2024-05-09T02:20:43.133Z,100695.28
2024-05-09T02:23:11.402Z,100688.28
2024-05-09T02:25:38.740Z,100696.31
2024-05-09T02:28:06.869Z,100691.97
2024-05-09T02:30:42.034Z,100691.97
2024-05-09T02:33:14.672Z,100690.31
2024-05-09T02:35:43.609Z,100693.00
2024-05-09T02:38:11.885Z,100695.66
2024-05-09T02:40:40.135Z,100686.81
2024-05-09T02:43:10.277Z,100696.50
2024-05-09T02:45:39.982Z,100695.66
2024-05-09T02:48:10.668Z,100693.00
2024-05-09T02:50:40.736Z,100698.34
2024-05-09T02:53:08.924Z,100688.66
2024-05-09T02:55:40.459Z,100687.66
2024-05-09T02:58:08.244Z,100689.31
2024-05-09T03:00:39.770Z,100688.66
2024-05-09T03:03:14.553Z,100694.00
2024-05-09T03:05:44.253Z,100697.69
2024-05-09T03:08:11.928Z,100696.00
2024-05-09T03:10:39.843Z,100697.00
2024-05-09T03:13:09.260Z,100700.72
2024-05-09T03:15:36.782Z,100702.53
2024-05-09T03:18:06.245Z,100700.06
2024-05-09T03:20:35.717Z,100702.91
2024-05-09T03:23:05.571Z,100704.09
2024-05-09T03:25:33.824Z,100700.25
2024-05-09T03:28:01.279Z,100700.97
2024-05-09T03:30:38.908Z,100702.69
2024-05-09T03:33:16.794Z,100706.06
2024-05-09T03:35:44.699Z,100695.25
2024-05-09T03:38:12.056Z,100701.28
2024-05-09T03:40:47.218Z,100706.13
2024-05-09T03:43:14.770Z,100701.50
2024-05-09T03:45:48.665Z,100701.16
2024-05-09T03:48:16.206Z,100705.22
2024-05-09T03:50:43.597Z,100697.72
2024-05-09T03:53:13.206Z,100697.38
2024-05-09T03:55:43.977Z,100696.09
2024-05-09T03:58:12.960Z,100695.56
2024-05-09T04:00:41.963Z,100696.13
2024-05-09T04:03:11.474Z,100702.78
2024-05-09T04:05:42.438Z,100702.13
2024-05-09T04:08:14.387Z,100711.47
2024-05-09T04:10:52.200Z,100715.34
2024-05-09T04:13:19.484Z,100710.50
2024-05-09T04:15:46.929Z,100718.81
2024-05-09T04:18:16.738Z,100710.13
2024-05-09T04:20:43.987Z,100722.81
2024-05-09T04:23:16.163Z,100724.84
2024-05-09T04:25:45.355Z,100727.00
2024-05-09T04:28:14.064Z,100723.81
2024-05-09T04:30:42.233Z,100729.50
2024-05-09T04:33:12.392Z,100727.84
2024-05-09T04:35:43.291Z,100728.16
2024-05-09T04:38:11.710Z,100730.19
2024-05-09T04:40:39.075Z,100729.53
2024-05-09T04:43:07.274Z,100728.00
2024-05-09T04:45:37.609Z,100736.19
2024-05-09T04:48:05.390Z,100730.19
2024-05-09T04:50:37.445Z,100733.03
2024-05-09T04:53:11.345Z,100741.19
2024-05-09T04:55:40.438Z,100732.34
2024-05-09T04:58:14.633Z,100730.69
2024-05-09T05:00:43.172Z,100731.69
2024-05-09T05:03:14.533Z,100735.19
2024-05-09T05:05:45.174Z,100738.84
2024-05-09T05:08:18.768Z,100745.03
2024-05-09T05:10:48.402Z,100737.03
2024-05-09T05:13:18.299Z,100741.53
2024-05-09T05:15:47.597Z,100745.03
2024-05-09T05:18:16.104Z,100754.84
2024-05-09T05:20:43.810Z,100754.84
2024-05-09T05:23:16.082Z,100747.69
2024-05-09T05:25:45.247Z,100745.03
2024-05-09T05:28:12.464Z,100751.19
2024-05-09T05:30:41.541Z,100745.84
2024-05-09T05:33:13.893Z,100747.50
2024-05-09T05:35:45.248Z,100758.88
2024-05-09T05:38:12.725Z,100752.53
2024-05-09T05:40:40.997Z,100744.34
2024-05-09T05:43:15.759Z,100753.84
2024-05-09T05:45:44.251Z,100760.53
2024-05-09T05:48:12.916Z,100763.69
2024-05-09T05:50:40.329Z,100762.34
2024-05-09T05:53:09.135Z,100764.53
2024-05-09T05:55:39.068Z,100766.53
2024-05-09T05:58:14.408Z,100773.06
2024-05-09T06:00:44.656Z,100775.91
2024-05-09T06:03:17.035Z,100779.56
2024-05-09T06:05:45.861Z,100787.88
2024-05-09T06:08:16.253Z,100782.53
2024-05-09T06:10:43.747Z,100773.81
2024-05-09T06:13:14.329Z,100772.31
2024-05-09T06:15:41.965Z,100765.28
2024-05-09T06:18:11.266Z,100761.09
2024-05-09T06:20:42.596Z,100761.25
2024-05-09T06:23:11.006Z,100763.22
2024-05-09T06:25:38.635Z,100763.53
2024-05-09T06:28:06.591Z,100761.84
2024-05-09T06:30:40.127Z,100767.31
2024-05-09T06:33:11.809Z,100774.66
2024-05-09T06:35:41.110Z,100763.91
2024-05-09T06:38:09.391Z,100771.25
2024-05-09T06:40:41.331Z,100761.50
2024-05-09T06:43:15.546Z,100764.94
2024-05-09T06:45:46.070Z,100757.88
2024-05-09T06:48:13.572Z,100769.38
2024-05-09T06:50:41.622Z,100759.63
2024-05-09T06:53:09.345Z,100769.63
2024-05-09T06:56:30.257Z,100771.25
2024-05-09T06:59:44.160Z,100772.50
2024-05-09T07:02:11.438Z,100770.78
2024-05-09T07:04:38.646Z,100774.22
2024-05-09T07:07:07.407Z,100771.28
2024-05-09T07:10:12.245Z,100770.00
2024-05-09T07:12:48.154Z,100765.88
2024-05-09T07:15:16.074Z,100764.59
2024-05-09T07:17:43.414Z,100756.28
2024-05-09T07:20:16.252Z,100766.38
2024-05-09T07:22:47.203Z,100767.56
2024-05-09T07:25:14.620Z,100756.38
2024-05-09T07:27:41.785Z,100763.94
2024-05-09T07:30:13.517Z,100767.16
2024-05-09T07:32:45.001Z,100759.66
2024-05-09T07:35:12.549Z,100762.25
2024-05-09T07:37:40.865Z,100758.44
2024-05-09T07:40:12.007Z,100764.97
2024-05-09T07:42:39.226Z,100756.38
2024-05-09T07:45:24.226Z,100755.69
2024-05-09T07:49:43.978Z,100745.06
2024-05-09T07:53:37.773Z,100759.16
2024-05-09T07:56:02.135Z,100754.50
2024-05-09T07:58:29.379Z,100749.25
2024-05-09T08:00:56.645Z,100741.91
2024-05-09T08:03:24.301Z,100746.97
2024-05-09T08:05:55.963Z,100741.22
2024-05-09T08:08:23.492Z,100739.22
2024-05-09T08:10:51.315Z,100732.44
2024-05-09T08:13:18.823Z,100736.81
2024-05-09T08:15:46.111Z,100741.88
2024-05-09T08:18:13.421Z,100740.84
2024-05-09T08:20:42.352Z,100735.28
2024-05-09T08:23:11.289Z,100729.66
2024-05-09T08:25:38.817Z,100734.84
2024-05-09T08:28:06.519Z,100734.81
2024-05-09T08:30:37.158Z,100728.56
2024-05-09T08:33:07.130Z,100730.19
2024-05-09T08:35:45.984Z,100731.88
2024-05-09T08:38:13.459Z,100731.84
2024-05-09T08:40:41.839Z,100727.22
2024-05-09T08:43:12.081Z,100730.88
2024-05-09T08:45:45.230Z,100725.63
2024-05-09T08:48:15.598Z,100729.28
2024-05-09T08:50:45.101Z,100736.31
2024-05-09T08:53:16.906Z,100731.91
2024-05-09T08:55:46.199Z,100731.06
2024-05-09T08:58:19.365Z,100727.91
2024-05-09T09:00:48.094Z,100730.78
2024-05-09T09:03:24.879Z,100722.28
2024-05-09T09:06:08.908Z,100721.00
2024-05-09T09:08:41.861Z,100716.84
2024-05-09T09:11:09.263Z,100715.09
2024-05-09T09:13:36.649Z,100718.38
2024-05-09T09:16:06.983Z,100718.28
2024-05-09T09:18:34.796Z,100717.31
2024-05-09T09:21:03.329Z,100713.44
2024-05-09T09:23:30.993Z,100719.91
2024-05-09T09:26:00.803Z,100703.94
2024-05-09T09:28:28.472Z,100714.78
2024-05-09T09:31:03.251Z,100711.06
2024-05-09T09:33:35.617Z,100712.19
2024-05-09T09:36:03.347Z,100712.59
2024-05-09T09:38:32.456Z,100707.81
2024-05-09T09:41:01.661Z,100714.09
2024-05-09T09:43:30.941Z,100712.28
2024-05-09T09:46:00.353Z,100719.00
2024-05-09T09:48:29.732Z,100705.84
2024-05-09T09:50:57.241Z,100708.31
2024-05-09T09:53:24.840Z,100704.53
2024-05-09T09:55:53.018Z,100712.47
2024-05-09T09:58:21.292Z,100707.03
2024-05-09T10:00:48.902Z,100702.88
2024-05-09T10:03:16.255Z,100701.47
2024-05-09T10:05:49.351Z,100695.25
2024-05-09T10:08:18.175Z,100690.06
2024-05-09T10:10:48.761Z,100695.25
2024-05-09T10:13:16.558Z,100687.25
2024-05-09T10:15:51.730Z,100694.66
2024-05-09T10:18:28.027Z,100683.69
2024-05-09T10:20:58.021Z,100687.59
2024-05-09T10:23:31.121Z,100685.03
2024-05-09T10:26:04.741Z,100688.91
2024-05-09T10:28:35.344Z,100682.78
2024-05-09T10:31:10.802Z,100672.25
2024-05-09T10:33:50.643Z,100681.59
2024-05-09T10:36:24.831Z,100676.75
2024-05-09T10:38:53.882Z,100670.50
2024-05-09T10:41:25.197Z,100674.63
2024-05-09T10:43:52.533Z,100677.44
2024-05-09T10:46:20.249Z,100668.16
2024-05-09T10:48:50.544Z,100673.09
2024-05-09T10:51:21.621Z,100662.09
2024-05-09T10:53:48.819Z,100660.59
2024-05-09T10:56:16.534Z,100652.78
2024-05-09T10:58:44.799Z,100653.16
2024-05-09T11:01:13.735Z,100656.19
2024-05-09T11:03:41.836Z,100652.78
2024-05-09T11:06:11.893Z,100652.06
2024-05-09T11:08:39.519Z,100648.03
2024-05-09T11:11:08.724Z,100644.00
2024-05-09T11:13:41.057Z,100650.63
2024-05-09T11:16:29.228Z,100648.84
2024-05-09T11:18:57.965Z,100649.16
2024-05-09T11:21:25.807Z,100635.34
2024-05-09T11:23:53.325Z,100644.91
2024-05-09T11:26:22.011Z,100647.38
2024-05-09T11:28:50.564Z,100636.50
2024-05-09T11:31:18.365Z,100642.75
2024-05-09T11:34:08.745Z,100637.69
2024-05-09T11:36:37.958Z,100633.41
2024-05-09T11:39:05.188Z,100625.34
2024-05-09T11:41:35.620Z,100625.44
2024-05-09T11:44:03.628Z,100620.13
2024-05-09T11:46:30.901Z,100621.25
2024-05-09T11:48:58.359Z,100607.78
2024-05-09T11:51:25.607Z,100626.91
2024-05-09T11:53:52.783Z,100615.06
2024-05-09T11:56:20.833Z,100610.78
2024-05-09T11:58:48.295Z,100618.19
2024-05-09T12:01:47.466Z,100608.50
2024-05-09T12:04:22.354Z,100615.78
2024-05-09T12:06:52.346Z,100604.44
2024-05-09T12:09:19.692Z,100612.69
2024-05-09T12:11:46.902Z,100611.94
2024-05-09T12:14:24.183Z,100600.56
2024-05-09T12:16:51.862Z,100597.13
2024-05-09T12:23:59.979Z,100583.91
2024-05-09T12:26:28.483Z,100582.59
2024-05-09T12:28:56.006Z,100586.94
2024-05-09T12:31:52.127Z,100584.56
2024-05-09T12:34:20.955Z,100584.06
2024-05-09T12:36:53.550Z,100579.69
2024-05-09T12:39:29.381Z,100582.75
2024-05-09T12:41:57.047Z,100579.50
2024-05-09T12:44:24.420Z,100577.88
2024-05-09T12:46:54.762Z,100580.34
2024-05-09T12:49:24.426Z,100560.00
2024-05-09T12:51:51.974Z,100568.19
2024-05-09T12:54:19.523Z,100560.09
2024-05-09T12:56:50.600Z,100560.22
2024-05-09T12:59:20.634Z,100554.25
2024-05-09T13:01:48.131Z,100542.31
2024-05-09T13:04:16.782Z,100537.44
2024-05-09T13:06:44.286Z,100542.38
2024-05-09T13:09:12.074Z,100543.50
2024-05-09T13:11:49.961Z,100534.81
2024-05-09T13:14:23.345Z,100546.88
2024-05-09T13:16:51.905Z,100533.00
2024-05-09T13:22:00.617Z,100540.06
2024-05-09T13:24:34.168Z,100530.00
2024-05-09T13:27:01.671Z,100527.06
2024-05-09T13:29:28.938Z,100533.88
2024-05-09T13:31:56.141Z,100528.44
2024-05-09T13:34:23.353Z,100514.00
2024-05-09T13:36:50.724Z,100516.47
2024-05-09T13:39:17.880Z,100506.16
2024-05-09T13:41:45.115Z,100505.09
2024-05-09T13:44:12.337Z,100503.44
2024-05-09T13:46:39.759Z,100505.56
2024-05-09T13:49:08.654Z,100502.84
2024-05-09T13:51:43.901Z,100499.63
2024-05-09T13:54:13.740Z,100501.91
2024-05-09T13:56:41.784Z,100493.78
2024-05-09T13:59:10.420Z,100494.91
2024-05-09T14:02:03.161Z,100487.81
2024-05-09T14:04:33.510Z,100485.66
2024-05-09T14:23:56.487Z,100468.19
2024-05-09T14:27:58.967Z,100475.28
2024-05-09T14:30:34.793Z,100466.56
2024-05-09T14:34:46.165Z,100468.69
2024-05-09T14:53:23.524Z,100437.16
2024-05-09T14:55:52.760Z,100438.53
2024-05-09T14:58:20.731Z,100433.34
2024-05-09T15:00:51.013Z,100428.44
2024-05-09T15:03:20.998Z,100426.28
2024-05-09T15:05:49.328Z,100426.56
2024-05-09T15:25:50.119Z,100409.34
2024-05-09T15:27:39.377Z,100399.75
2024-05-09T15:30:10.693Z,100393.16
2024-05-09T15:32:38.435Z,100390.69
2024-05-09T15:35:06.473Z,100400.44
2024-05-09T15:43:32.703Z,100393.84
2024-05-09T15:47:15.761Z,100400.31
2024-05-09T15:49:43.353Z,100390.75
2024-05-09T15:52:12.192Z,100392.91
2024-05-09T15:54:39.621Z,100396.69
2024-05-09T15:57:07.618Z,100391.00
2024-05-09T15:59:35.981Z,100386.13
2024-05-09T16:02:03.287Z,100392.13
2024-05-09T16:04:32.657Z,100387.25
2024-05-09T16:07:39.235Z,100395.41
2024-05-09T16:10:07.169Z,100388.59
2024-05-09T16:12:37.699Z,100384.50
2024-05-09T16:15:07.964Z,100384.72
2024-05-09T16:17:35.452Z,100385.56
2024-05-09T16:20:06.801Z,100386.63
2024-05-09T16:22:36.170Z,100386.63
2024-05-09T16:25:03.516Z,100388.81
2024-05-09T16:27:31.646Z,100380.06
2024-05-09T16:30:04.130Z,100386.00
2024-05-09T16:32:34.088Z,100376.44
2024-05-09T16:35:01.322Z,100381.56
2024-05-09T16:37:32.183Z,100381.00
2024-05-09T16:39:59.493Z,100382.91
2024-05-09T16:42:27.069Z,100389.44
2024-05-09T16:44:54.235Z,100386.38
2024-05-09T16:47:21.730Z,100384.75
2024-05-09T16:49:49.070Z,100372.72
2024-05-09T16:52:16.433Z,100371.34
2024-05-09T16:54:43.844Z,100368.34
2024-05-09T16:58:42.158Z,100368.00
2024-05-09T17:01:07.778Z,100376.44
2024-05-09T17:03:35.362Z,100373.72
2024-05-09T17:06:06.381Z,100370.16
2024-05-09T17:08:33.613Z,100370.66
2024-05-09T17:11:00.970Z,100375.53
2024-05-09T17:13:28.398Z,100367.06
2024-05-09T17:15:55.882Z,100361.31
2024-05-09T17:18:23.220Z,100364.78
2024-05-09T17:20:52.349Z,100369.13
2024-05-09T17:23:19.565Z,100370.69
2024-05-09T17:25:49.747Z,100371.16
2024-05-09T17:28:17.116Z,100374.41
2024-05-09T17:30:44.815Z,100371.94
2024-05-09T17:33:15.158Z,100365.09
2024-05-09T17:51:45.831Z,100368.50
2024-05-09T18:07:42.718Z,100381.81
2024-05-09T18:10:19.037Z,100380.91
2024-05-09T18:12:49.630Z,100381.66
2024-05-09T18:15:16.858Z,100378.88
2024-05-09T18:17:46.984Z,100379.03
2024-05-09T18:20:23.519Z,100379.75
2024-05-09T18:22:56.048Z,100379.91
2024-05-09T18:29:00.503Z,100376.94
2024-05-09T18:31:28.143Z,100381.44
2024-05-09T18:33:55.931Z,100375.59
2024-05-09T18:36:27.203Z,100385.72
2024-05-09T18:38:54.567Z,100383.41
2024-05-09T18:41:21.915Z,100386.53
2024-05-09T18:43:58.222Z,100388.81
2024-05-09T18:46:54.896Z,100384.47
2024-05-09T18:49:22.243Z,100388.00
2024-05-09T18:51:52.104Z,100383.22
2024-05-09T18:54:19.282Z,100392.75
2024-05-09T18:56:46.579Z,100393.94
2024-05-09T18:59:13.758Z,100395.38
2024-05-09T19:01:45.343Z,100397.63
2024-05-09T19:04:35.895Z,100394.44
2024-05-09T19:07:33.522Z,100396.31
2024-05-09T19:10:21.573Z,100393.94
2024-05-09T19:16:21.782Z,100405.31
2024-05-09T19:18:51.366Z,100407.28
2024-05-09T19:21:18.738Z,100408.69
2024-05-09T19:23:50.913Z,100413.34
2024-05-09T19:31:39.119Z,100417.19
2024-05-09T19:34:20.047Z,100416.47
2024-05-09T19:40:32.350Z,100419.78
2024-05-09T19:43:03.092Z,100413.66
2024-05-09T19:49:00.658Z,100407.34
2024-05-09T19:51:28.558Z,100408.88
2024-05-09T19:54:06.995Z,100411.41
2024-05-09T19:56:41.920Z,100409.38
2024-05-09T20:10:23.268Z,100396.91
2024-05-09T20:12:52.848Z,100406.53
2024-05-09T21:08:12.236Z,100410.22
2024-05-09T21:11:32.352Z,100407.75
2024-05-09T21:15:25.542Z,100412.31
2024-05-09T21:17:58.542Z,100405.72
2024-05-09T21:23:20.342Z,100406.94
2024-05-09T21:31:04.054Z,100409.25
2024-05-09T21:34:02.725Z,100405.13
2024-05-09T21:36:30.006Z,100409.47
2024-05-09T21:38:57.155Z,100407.00
2024-05-09T21:41:26.543Z,100410.75
2024-05-09T21:45:01.816Z,100401.00
2024-05-09T21:47:31.373Z,100399.38
2024-05-09T21:50:01.437Z,100402.06
2024-05-09T21:52:35.381Z,100395.00
2024-05-09T21:55:03.543Z,100389.00
2024-05-09T21:57:30.707Z,100386.31
2024-05-09T21:59:57.914Z,100391.69
2024-05-09T22:02:25.230Z,100388.19
2024-05-09T22:04:52.515Z,100386.53
2024-05-09T22:07:19.704Z,100382.78
2024-05-09T22:09:46.927Z,100389.44
2024-05-09T22:12:14.262Z,100382.19
2024-05-09T22:14:42.815Z,100388.81
2024-05-09T22:17:10.053Z,100386.13
2024-05-09T22:19:54.123Z,100386.13
2024-05-09T22:22:54.069Z,100387.19
2024-05-09T22:25:21.717Z,100388.22
2024-05-09T22:30:59.702Z,100392.19
2024-05-09T22:33:27.169Z,100391.38
2024-05-09T22:35:57.081Z,100387.00
2024-05-09T22:38:24.256Z,100385.13
2024-05-09T22:40:54.437Z,100388.06
2024-05-09T22:43:24.061Z,100386.19
2024-05-09T22:45:56.763Z,100391.78
2024-05-09T22:48:25.748Z,100379.38
2024-05-09T22:50:54.545Z,100384.75
2024-05-09T22:53:24.731Z,100380.63
2024-05-09T22:55:52.245Z,100383.53
2024-05-09T22:58:23.867Z,100380.00
2024-05-09T23:00:51.452Z,100373.19
2024-05-09T23:03:21.240Z,100377.75
2024-05-09T23:05:49.051Z,100370.72
2024-05-09T23:08:16.182Z,100375.50
2024-05-09T23:10:43.523Z,100375.72
2024-05-09T23:13:10.946Z,100376.75
2024-05-09T23:15:38.761Z,100374.47
2024-05-09T23:18:06.848Z,100372.84
2024-05-09T23:20:38.466Z,100372.25
2024-05-09T23:23:11.694Z,100373.28
2024-05-09T23:25:43.021Z,100368.94
2024-05-09T23:28:11.520Z,100368.13
2024-05-09T23:30:42.294Z,100357.53
2024-05-09T23:33:12.435Z,100362.91
2024-05-09T23:35:44.521Z,100358.81
2024-05-09T23:38:12.636Z,100360.69
2024-05-09T23:40:41.484Z,100359.03
2024-05-09T23:43:11.384Z,100354.88
2024-05-09T23:45:39.601Z,100350.53
2024-05-09T23:48:07.884Z,100353.47
2024-05-09T23:50:37.872Z,100358.03
2024-05-09T23:53:08.991Z,100352.84
2024-05-09T23:55:37.526Z,100360.13
2024-05-09T23:58:08.212Z,100363.00
